Time,TemperatureF,DewpointF,PressureIn,WindDirection,WindDirectionDegrees,WindSpeedMPH,WindSpeedGustMPH,Humidity,HourlyPrecipIn,Conditions,Clouds,dailyrainin,SoftwareType,DateUTC
2013-04-07 00:03:00,53.0,26.0,30.01,SSE,165,2.0,8.0,35,-99.99,,,-99.99,,2013-04-07 04:03:00,
2013-04-07 00:14:00,53.0,26.0,30.01,SSE,165,2.0,8.0,35,-99.99,,,-99.99,,2013-04-07 04:14:00,
2013-04-07 00:23:00,53.0,26.0,30.00,SE,139,1.0,6.0,35,-99.99,,,-99.99,,2013-04-07 04:23:00,
2013-04-07 00:32:00,53.0,27.0,29.99,South,190,2.0,7.0,36,-99.99,,,-99.99,,2013-04-07 04:32:00,
2013-04-07 00:43:00,53.0,27.0,29.99,South,190,2.0,7.0,36,-99.99,,,-99.99,,2013-04-07 04:43:00,
2013-04-07 00:53:00,53.0,27.0,29.99,South,172,1.0,4.0,36,-99.99,,,-99.99,,2013-04-07 04:53:00,
2013-04-07 01:02:00,53.0,27.0,29.98,SSE,155,2.0,8.0,36,-99.99,,,-99.99,,2013-04-07 05:02:00,
2013-04-07 01:12:00,53.0,27.0,29.98,SSE,155,2.0,8.0,36,-99.99,,,-99.99,,2013-04-07 05:12:00,
2013-04-07 01:23:00,53.0,27.0,29.98,North,0,0.0,0.0,37,-99.99,,,-99.99,,2013-04-07 05:23:00,
2013-04-07 01:33:00,53.0,28.0,29.98,South,180,3.0,6.0,38,-99.99,,,-99.99,,2013-04-07 05:33:00,
2013-04-07 01:43:00,53.0,28.0,29.98,South,180,3.0,6.0,38,-99.99,,,-99.99,,2013-04-07 05:43:00,
2013-04-07 01:52:00,53.0,28.0,29.97,SSW,194,3.0,9.0,38,-99.99,,,-99.99,,2013-04-07 05:52:00,
2013-04-07 02:02:00,53.0,29.0,29.98,SW,219,4.0,10.0,39,-99.99,,,-99.99,,2013-04-07 06:02:00,
2013-04-07 02:12:00,53.0,29.0,29.98,SW,219,4.0,10.0,39,-99.99,,,-99.99,,2013-04-07 06:12:00,
2013-04-07 02:22:00,53.0,29.0,29.97,SSW,212,3.0,8.0,39,-99.99,,,-99.99,,2013-04-07 06:22:00,
2013-04-07 02:32:00,53.0,29.0,29.97,SSW,200,5.0,11.0,40,-99.99,,,-99.99,,2013-04-07 06:32:00,
2013-04-07 02:42:00,53.0,29.0,29.97,SSW,200,5.0,11.0,40,-99.99,,,-99.99,,2013-04-07 06:42:00,
2013-04-07 02:52:00,54.0,30.0,29.96,South,187,5.0,10.0,40,-99.99,,,-99.99,,2013-04-07 06:52:00,
2013-04-07 03:02:00,54.0,31.0,29.96,South,190,5.0,9.0,42,-99.99,,,-99.99,,2013-04-07 07:02:00,
2013-04-07 03:12:00,54.0,31.0,29.96,South,190,5.0,9.0,42,-99.99,,,-99.99,,2013-04-07 07:12:00,
2013-04-07 03:22:00,54.0,32.0,29.95,SSE,155,5.0,8.0,43,-99.99,,,-99.99,,2013-04-07 07:22:00,
2013-04-07 03:33:00,54.0,33.0,29.94,SSW,212,5.0,11.0,45,-99.99,,,-99.99,,2013-04-07 07:33:00,
2013-04-07 03:42:00,54.0,33.0,29.94,SSW,212,5.0,11.0,45,-99.99,,,-99.99,,2013-04-07 07:42:00,
2013-04-07 03:52:00,55.0,35.0,29.94,SW,218,6.0,14.0,46,-99.99,,,-99.99,,2013-04-07 07:52:00,
2013-04-07 04:02:00,55.0,35.0,29.93,SSW,198,5.0,8.0,47,-99.99,,,-99.99,,2013-04-07 08:02:00,
2013-04-07 04:12:00,55.0,36.0,29.93,South,170,6.0,14.0,48,-99.99,,,-99.99,,2013-04-07 08:12:00,
2013-04-07 04:22:00,55.0,36.0,29.93,South,170,6.0,14.0,48,-99.99,,,-99.99,,2013-04-07 08:22:00,
2013-04-07 04:33:00,55.0,36.0,29.93,South,173,7.0,14.0,49,-99.99,,,-99.99,,2013-04-07 08:33:00,
2013-04-07 04:42:00,55.0,36.0,29.93,South,173,7.0,14.0,49,-99.99,,,-99.99,,2013-04-07 08:42:00,
2013-04-07 04:52:00,55.0,36.0,29.93,SW,222,6.0,12.0,49,-99.99,,,-99.99,,2013-04-07 08:52:00,
2013-04-07 05:02:00,56.0,37.0,29.93,SW,231,7.0,14.0,48,-99.99,,,-99.99,,2013-04-07 09:02:00,
2013-04-07 05:12:00,56.0,37.0,29.93,SW,231,7.0,14.0,48,-99.99,,,-99.99,,2013-04-07 09:12:00,
2013-04-07 05:22:00,56.0,37.0,29.93,SW,229,7.0,14.0,48,-99.99,,,-99.99,,2013-04-07 09:22:00,
2013-04-07 05:33:00,56.0,37.0,29.93,South,190,5.0,10.0,49,-99.99,,,-99.99,,2013-04-07 09:33:00,
2013-04-07 05:43:00,56.0,37.0,29.93,South,190,5.0,10.0,49,-99.99,,,-99.99,,2013-04-07 09:43:00,
2013-04-07 05:54:00,55.0,36.0,29.93,SW,217,6.0,12.0,49,-99.99,,,-99.99,,2013-04-07 09:54:00,
2013-04-07 06:04:00,55.0,36.0,29.92,SW,218,6.0,13.0,49,-99.99,,,-99.99,,2013-04-07 10:04:00,
2013-04-07 06:14:00,55.0,36.0,29.92,SW,218,6.0,13.0,49,-99.99,,,-99.99,,2013-04-07 10:14:00,
2013-04-07 06:23:00,55.0,36.0,29.93,WSW,242,6.0,11.0,49,-99.99,,,-99.99,,2013-04-07 10:23:00,
2013-04-07 06:33:00,55.0,36.0,29.92,SSE,160,6.0,10.0,49,-99.99,,,-99.99,,2013-04-07 10:33:00,
2013-04-07 06:43:00,55.0,36.0,29.92,SSE,160,6.0,10.0,49,-99.99,,,-99.99,,2013-04-07 10:43:00,
2013-04-07 06:53:00,55.0,37.0,29.92,SSW,193,4.0,12.0,50,-99.99,,,-99.99,,2013-04-07 10:53:00,
2013-04-07 07:03:00,54.0,36.0,29.92,SW,233,3.0,8.0,50,-99.99,,,-99.99,,2013-04-07 11:03:00,
2013-04-07 07:12:00,54.0,36.0,29.92,SW,233,3.0,8.0,50,-99.99,,,-99.99,,2013-04-07 11:12:00,
2013-04-07 07:23:00,55.0,37.0,29.92,SW,221,6.0,10.0,50,-99.99,,,-99.99,,2013-04-07 11:23:00,
2013-04-07 07:33:00,54.0,36.0,29.92,SW,219,5.0,10.0,50,-99.99,,,-99.99,,2013-04-07 11:33:00,
2013-04-07 07:42:00,54.0,36.0,29.92,SW,219,5.0,10.0,50,-99.99,,,-99.99,,2013-04-07 11:42:00,
2013-04-07 07:53:00,54.0,36.0,29.92,SSW,203,5.0,10.0,51,-99.99,,,-99.99,,2013-04-07 11:53:00,
2013-04-07 08:02:00,54.0,36.0,29.92,South,183,6.0,13.0,51,-99.99,,,-99.99,,2013-04-07 12:02:00,
2013-04-07 08:12:00,54.0,36.0,29.92,South,183,6.0,13.0,51,-99.99,,,-99.99,,2013-04-07 12:12:00,
2013-04-07 08:23:00,55.0,37.0,29.92,South,187,6.0,9.0,50,-99.99,,,-99.99,,2013-04-07 12:23:00,
2013-04-07 08:34:00,56.0,38.0,29.93,SW,219,5.0,13.0,50,-99.99,,,-99.99,,2013-04-07 12:34:00,
2013-04-07 08:43:00,56.0,38.0,29.93,SW,219,5.0,13.0,50,-99.99,,,-99.99,,2013-04-07 12:43:00,
2013-04-07 08:54:00,56.0,38.0,29.93,SW,233,6.0,14.0,50,-99.99,,,-99.99,,2013-04-07 12:54:00,
2013-04-07 09:04:00,58.0,39.0,29.92,SSW,210,8.0,13.0,49,-99.99,,,-99.99,,2013-04-07 13:04:00,
2013-04-07 09:13:00,58.0,39.0,29.92,SSW,210,8.0,13.0,49,-99.99,,,-99.99,,2013-04-07 13:13:00,
2013-04-07 09:23:00,59.0,39.0,29.92,SW,228,7.0,13.0,48,-99.99,,,-99.99,,2013-04-07 13:23:00,
2013-04-07 09:32:00,60.0,40.0,29.91,SSW,195,7.0,15.0,48,-99.99,,,-99.99,,2013-04-07 13:32:00,
2013-04-07 09:42:00,60.0,40.0,29.91,SSW,195,7.0,15.0,48,-99.99,,,-99.99,,2013-04-07 13:42:00,
2013-04-07 09:53:00,61.0,41.0,29.91,SW,229,7.0,17.0,47,-99.99,,,-99.99,,2013-04-07 13:53:00,
2013-04-07 10:02:00,62.0,41.0,29.90,South,169,6.0,12.0,46,-99.99,,,-99.99,,2013-04-07 14:02:00,
2013-04-07 10:12:00,62.0,41.0,29.90,South,169,6.0,12.0,46,-99.99,,,-99.99,,2013-04-07 14:12:00,
2013-04-07 10:23:00,63.0,42.0,29.90,WSW,239,7.0,19.0,46,-99.99,,,-99.99,,2013-04-07 14:23:00,
2013-04-07 10:33:00,64.0,42.0,29.90,SW,231,10.0,20.0,45,-99.99,,,-99.99,,2013-04-07 14:33:00,
2013-04-07 10:43:00,64.0,42.0,29.90,SW,231,10.0,20.0,45,-99.99,,,-99.99,,2013-04-07 14:43:00,
2013-04-07 10:53:00,65.0,43.0,29.90,SW,219,10.0,25.0,44,-99.99,,,-99.99,,2013-04-07 14:53:00,
2013-04-07 11:03:00,65.0,43.0,29.90,West,259,7.0,15.0,45,-99.99,,,-99.99,,2013-04-07 15:03:00,
2013-04-07 11:13:00,65.0,43.0,29.91,West,276,10.0,24.0,44,-99.99,,,-99.99,,2013-04-07 15:13:00,
2013-04-07 11:22:00,65.0,43.0,29.91,West,276,10.0,24.0,44,-99.99,,,-99.99,,2013-04-07 15:22:00,
2013-04-07 11:34:00,65.0,43.0,29.91,SW,229,9.0,26.0,44,-99.99,,,-99.99,,2013-04-07 15:34:00,
2013-04-07 11:45:00,65.0,43.0,29.91,SW,229,9.0,26.0,44,-99.99,,,-99.99,,2013-04-07 15:45:00,
2013-04-07 11:55:00,66.0,44.0,29.91,West,280,10.0,31.0,45,-99.99,,,-99.99,,2013-04-07 15:55:00,
2013-04-07 12:04:00,66.0,44.0,29.90,West,271,9.0,18.0,45,-99.99,,,-99.99,,2013-04-07 16:04:00,
2013-04-07 12:13:00,66.0,44.0,29.90,West,271,9.0,18.0,45,-99.99,,,-99.99,,2013-04-07 16:13:00,
2013-04-07 12:25:00,66.0,45.0,29.91,West,280,7.0,17.0,46,-99.99,,,-99.99,,2013-04-07 16:25:00,
2013-04-07 12:33:00,65.0,44.0,29.91,WNW,284,7.0,22.0,46,-99.99,,,-99.99,,2013-04-07 16:33:00,
2013-04-07 12:43:00,65.0,44.0,29.91,WNW,284,7.0,22.0,46,-99.99,,,-99.99,,2013-04-07 16:43:00,
2013-04-07 12:54:00,64.0,43.0,29.91,West,263,9.0,20.0,47,-99.99,,,-99.99,,2013-04-07 16:54:00,
2013-04-07 13:04:00,64.0,44.0,29.91,West,266,7.0,19.0,48,-99.99,,,-99.99,,2013-04-07 17:04:00,
2013-04-07 13:13:00,64.0,44.0,29.91,West,266,7.0,19.0,48,-99.99,,,-99.99,,2013-04-07 17:13:00,
2013-04-07 13:23:00,65.0,45.0,29.90,WNW,283,5.0,11.0,48,-99.99,,,-99.99,,2013-04-07 17:23:00,
2013-04-07 13:33:00,65.0,44.0,29.89,West,273,8.0,19.0,47,-99.99,,,-99.99,,2013-04-07 17:33:00,
2013-04-07 13:43:00,65.0,44.0,29.89,West,273,8.0,19.0,47,-99.99,,,-99.99,,2013-04-07 17:43:00,
2013-04-07 13:53:00,67.0,46.0,29.89,West,281,5.0,14.0,47,-99.99,,,-99.99,,2013-04-07 17:53:00,
2013-04-07 14:03:00,67.0,46.0,29.89,West,278,5.0,13.0,46,-99.99,,,-99.99,,2013-04-07 18:03:00,
2013-04-07 14:13:00,67.0,46.0,29.89,West,278,5.0,13.0,46,-99.99,,,-99.99,,2013-04-07 18:13:00,
2013-04-07 14:23:00,67.0,46.0,29.89,SSW,204,5.0,12.0,46,-99.99,,,-99.99,,2013-04-07 18:23:00,
2013-04-07 14:33:00,67.0,46.0,29.88,West,264,6.0,13.0,47,-99.99,,,-99.99,,2013-04-07 18:33:00,
2013-04-07 14:43:00,67.0,46.0,29.88,West,264,6.0,13.0,47,-99.99,,,-99.99,,2013-04-07 18:43:00,
2013-04-07 14:53:00,69.0,47.0,29.88,NW,315,5.0,13.0,46,-99.99,,,-99.99,,2013-04-07 18:53:00,
2013-04-07 15:03:00,70.0,47.0,29.89,WNW,290,10.0,18.0,44,-99.99,,,-99.99,,2013-04-07 19:03:00,
2013-04-07 15:12:00,70.0,47.0,29.89,WNW,290,10.0,18.0,44,-99.99,,,-99.99,,2013-04-07 19:12:00,
2013-04-07 15:22:00,72.0,49.0,29.88,West,269,5.0,9.0,44,-99.99,,,-99.99,,2013-04-07 19:22:00,
2013-04-07 15:33:00,71.0,48.0,29.88,West,271,7.0,16.0,44,-99.99,,,-99.99,,2013-04-07 19:33:00,
2013-04-07 15:42:00,71.0,48.0,29.88,West,271,7.0,16.0,44,-99.99,,,-99.99,,2013-04-07 19:42:00,
2013-04-07 15:53:00,72.0,48.0,29.88,SSW,210,6.0,13.0,42,-99.99,,,-99.99,,2013-04-07 19:53:00,
2013-04-07 16:03:00,72.0,48.0,29.88,West,277,6.0,14.0,43,-99.99,,,-99.99,,2013-04-07 20:03:00,
2013-04-07 16:13:00,72.0,48.0,29.88,West,277,6.0,14.0,43,-99.99,,,-99.99,,2013-04-07 20:13:00,
2013-04-07 16:22:00,73.0,49.0,29.87,SW,229,9.0,19.0,42,-99.99,,,-99.99,,2013-04-07 20:22:00,
2013-04-07 16:33:00,73.0,49.0,29.87,WSW,243,6.0,12.0,43,-99.99,,,-99.99,,2013-04-07 20:33:00,
2013-04-07 16:43:00,73.0,49.0,29.87,WSW,243,6.0,12.0,43,-99.99,,,-99.99,,2013-04-07 20:43:00,
2013-04-07 16:54:00,72.0,49.0,29.87,West,264,8.0,19.0,44,-99.99,,,-99.99,,2013-04-07 20:54:00,
2013-04-07 17:03:00,72.0,48.0,29.87,WNW,293,9.0,21.0,43,-99.99,,,-99.99,,2013-04-07 21:03:00,
2013-04-07 17:13:00,72.0,48.0,29.87,WNW,293,9.0,21.0,43,-99.99,,,-99.99,,2013-04-07 21:13:00,
2013-04-07 17:22:00,72.0,49.0,29.88,SSW,193,6.0,11.0,44,-99.99,,,-99.99,,2013-04-07 21:22:00,
2013-04-07 17:34:00,71.0,48.0,29.88,WNW,284,8.0,15.0,44,-99.99,,,-99.99,,2013-04-07 21:34:00,
2013-04-07 17:44:00,71.0,48.0,29.88,WNW,284,8.0,15.0,44,-99.99,,,-99.99,,2013-04-07 21:44:00,
2013-04-07 17:53:00,71.0,48.0,29.89,WSW,253,7.0,15.0,44,-99.99,,,-99.99,,2013-04-07 21:53:00,
2013-04-07 18:04:00,71.0,48.0,29.89,WSW,255,9.0,20.0,44,-99.99,,,-99.99,,2013-04-07 22:04:00,
2013-04-07 18:14:00,71.0,48.0,29.89,WSW,255,9.0,20.0,44,-99.99,,,-99.99,,2013-04-07 22:14:00,
2013-04-07 18:23:00,70.0,48.0,29.89,West,278,6.0,13.0,46,-99.99,,,-99.99,,2013-04-07 22:23:00,
2013-04-07 18:34:00,70.0,48.0,29.90,SW,233,8.0,14.0,46,-99.99,,,-99.99,,2013-04-07 22:34:00,
2013-04-07 18:43:00,70.0,48.0,29.90,SW,233,8.0,14.0,46,-99.99,,,-99.99,,2013-04-07 22:43:00,
2013-04-07 19:03:00,70.0,48.0,29.90,West,277,6.0,16.0,46,-99.99,,,-99.99,,2013-04-07 23:03:00,
2013-04-07 19:13:00,70.0,48.0,29.90,West,277,6.0,16.0,46,-99.99,,,-99.99,,2013-04-07 23:13:00,
2013-04-07 19:22:00,69.0,48.0,29.90,WNW,302,5.0,14.0,47,-99.99,,,-99.99,,2013-04-07 23:22:00,
2013-04-07 19:33:00,69.0,48.0,29.90,WNW,297,3.0,9.0,48,-99.99,,,-99.99,,2013-04-07 23:33:00,
2013-04-07 19:43:00,69.0,48.0,29.90,WNW,297,3.0,9.0,48,-99.99,,,-99.99,,2013-04-07 23:43:00,
2013-04-07 19:53:00,68.0,49.0,29.91,SSW,210,4.0,9.0,51,-99.99,,,-99.99,,2013-04-07 23:53:00,
2013-04-07 20:02:00,67.0,49.0,29.91,West,277,3.0,9.0,53,-99.99,,,-99.99,,2013-04-08 00:02:00,
2013-04-07 20:12:00,67.0,49.0,29.91,West,277,3.0,9.0,53,-99.99,,,-99.99,,2013-04-08 00:12:00,
2013-04-07 20:22:00,66.0,49.0,29.92,SW,221,1.0,5.0,55,-99.99,,,-99.99,,2013-04-08 00:22:00,
2013-04-07 20:32:00,65.0,49.0,29.93,WSW,239,1.0,6.0,56,-99.99,,,-99.99,,2013-04-08 00:32:00,
2013-04-07 20:42:00,65.0,49.0,29.93,WSW,239,1.0,6.0,56,-99.99,,,-99.99,,2013-04-08 00:42:00,
2013-04-07 20:53:00,64.0,49.0,29.93,SW,235,1.0,7.0,58,-99.99,,,-99.99,,2013-04-08 00:53:00,
2013-04-07 21:03:00,64.0,49.0,29.93,WSW,245,3.0,7.0,58,-99.99,,,-99.99,,2013-04-08 01:03:00,
2013-04-07 21:12:00,64.0,49.0,29.93,WSW,245,3.0,7.0,58,-99.99,,,-99.99,,2013-04-08 01:12:00,
2013-04-07 21:23:00,63.0,49.0,29.94,WSW,239,1.0,5.0,61,-99.99,,,-99.99,,2013-04-08 01:23:00,
2013-04-07 21:33:00,62.0,49.0,29.94,WSW,239,2.0,7.0,62,-99.99,,,-99.99,,2013-04-08 01:33:00,
2013-04-07 21:44:00,62.0,49.0,29.94,WSW,239,2.0,7.0,62,-99.99,,,-99.99,,2013-04-08 01:44:00,
2013-04-07 21:55:00,62.0,50.0,29.95,SW,233,4.0,8.0,64,-99.99,,,-99.99,,2013-04-08 01:55:00,
2013-04-07 22:03:00,61.0,50.0,29.96,North,11,3.0,9.0,66,-99.99,,,-99.99,,2013-04-08 02:03:00,
2013-04-07 22:12:00,61.0,50.0,29.96,North,11,3.0,9.0,66,-99.99,,,-99.99,,2013-04-08 02:12:00,
2013-04-07 22:22:00,62.0,48.0,29.97,North,0,3.0,11.0,61,-99.99,,,-99.99,,2013-04-08 02:22:00,
2013-04-07 22:33:00,62.0,48.0,29.98,North,6,1.0,4.0,61,-99.99,,,-99.99,,2013-04-08 02:33:00,
2013-04-07 22:47:00,62.0,48.0,29.98,North,6,1.0,4.0,61,-99.99,,,-99.99,,2013-04-08 02:47:00,
2013-04-07 22:54:00,60.0,47.0,29.98,North,6,1.0,5.0,62,-99.99,,,-99.99,,2013-04-08 02:54:00,
2013-04-07 23:08:00,60.0,47.0,29.99,North,1,2.0,6.0,62,-99.99,,,-99.99,,2013-04-08 03:08:00,
2013-04-07 23:15:00,60.0,47.0,29.99,North,1,2.0,6.0,62,-99.99,,,-99.99,,2013-04-08 03:15:00,
2013-04-07 23:25:00,59.0,46.0,29.99,North,11,1.0,5.0,63,-99.99,,,-99.99,,2013-04-08 03:25:00,
2013-04-07 23:34:00,58.0,46.0,29.99,NNE,32,0.0,2.0,64,-99.99,,,-99.99,,2013-04-08 03:34:00,
2013-04-07 23:47:00,58.0,46.0,29.99,NNE,32,0.0,2.0,64,-99.99,,,-99.99,,2013-04-08 03:47:00,
2013-04-07 23:58:00,57.0,45.0,29.99,North,0,0.0,0.0,65,-99.99,,,-99.99,,2013-04-08 03:58:00,